createdAt,value
2022-11-01T00:01:40.417Z,4.17
2022-11-01T00:04:08.721Z,3.47
2022-11-01T00:06:36.469Z,3.70
2022-11-01T00:09:04.640Z,3.80
2022-11-01T00:11:31.408Z,3.30
2022-11-01T00:13:58.259Z,4.47
2022-11-01T00:16:25.254Z,4.03
2022-11-01T00:18:52.378Z,4.10
2022-11-01T00:21:19.302Z,4.00
2022-11-01T00:23:46.795Z,4.77
2022-11-01T00:26:23.356Z,3.90
2022-11-01T00:28:51.010Z,3.57
2022-11-01T00:31:19.607Z,4.30
2022-11-01T00:33:46.579Z,3.67
2022-11-01T00:36:13.758Z,4.20
2022-11-01T00:38:40.687Z,4.37
2022-11-01T00:41:08.147Z,4.30
2022-11-01T00:43:35.863Z,3.90
2022-11-01T00:46:03.136Z,3.77
2022-11-01T00:48:30.104Z,4.40
2022-11-01T00:50:56.948Z,4.50
2022-11-01T00:53:23.763Z,4.43
2022-11-01T00:55:50.727Z,4.47
2022-11-01T00:58:17.812Z,4.80
2022-11-01T01:00:44.683Z,4.47
2022-11-01T01:03:11.546Z,4.10
2022-11-01T01:05:39.408Z,4.47
2022-11-01T01:08:06.171Z,4.70
2022-11-01T01:10:33.129Z,4.50
2022-11-01T01:13:00.504Z,4.40
2022-11-01T01:15:27.638Z,4.80
2022-11-01T01:17:54.550Z,4.30
2022-11-01T01:20:21.683Z,4.63
2022-11-01T01:22:49.002Z,4.40
2022-11-01T01:25:16.735Z,4.57
2022-11-01T01:27:43.738Z,4.50
2022-11-01T01:30:11.228Z,4.20
2022-11-01T01:32:38.071Z,4.07
2022-11-01T01:35:05.398Z,4.10
2022-11-01T01:37:32.424Z,4.17
2022-11-01T01:39:59.521Z,4.30
2022-11-01T01:42:36.512Z,4.10
2022-11-01T01:45:14.428Z,4.57
2022-11-01T01:47:43.633Z,3.87
2022-11-01T01:50:40.152Z,4.40
2022-11-01T01:53:12.896Z,3.77
2022-11-01T01:55:45.461Z,3.97
2022-11-01T01:58:14.604Z,3.90
2022-11-01T02:00:44.273Z,4.20
2022-11-01T02:03:12.294Z,4.00
2022-11-01T02:05:53.537Z,3.93
2022-11-01T02:08:27.917Z,3.80
2022-11-01T02:10:58.223Z,4.03
2022-11-01T02:13:25.169Z,4.07
2022-11-01T02:16:04.060Z,4.23
2022-11-01T02:18:33.640Z,3.73
2022-11-01T02:21:27.749Z,3.57
2022-11-01T02:24:18.720Z,3.30
2022-11-01T02:26:58.104Z,3.43
2022-11-01T02:29:58.319Z,3.30
2022-11-01T02:32:54.724Z,3.70
2022-11-01T02:35:27.706Z,3.20
2022-11-01T02:38:18.952Z,3.60
2022-11-01T02:41:03.823Z,3.17
2022-11-01T02:43:49.999Z,2.80
2022-11-01T02:46:38.201Z,2.77
2022-11-01T02:49:06.009Z,2.80
2022-11-01T02:51:33.978Z,3.33
2022-11-01T02:54:05.838Z,3.17
2022-11-01T02:56:32.749Z,2.87
2022-11-01T02:59:00.225Z,2.67
2022-11-01T03:01:30.573Z,2.80
2022-11-01T03:03:58.518Z,3.20
2022-11-01T03:06:41.505Z,2.60
2022-11-01T03:09:11.358Z,3.20
2022-11-01T03:11:50.556Z,3.00
2022-11-01T03:14:32.364Z,3.20
2022-11-01T03:17:24.232Z,4.03
2022-11-01T03:20:06.734Z,3.30
2022-11-01T03:22:58.156Z,3.30
2022-11-01T03:25:40.204Z,3.30
2022-11-01T03:28:23.785Z,3.03
2022-11-01T03:30:59.965Z,2.90
2022-11-01T03:33:28.764Z,3.33
2022-11-01T03:36:01.278Z,3.83
2022-11-01T03:38:33.104Z,3.77
2022-11-01T03:41:06.523Z,2.97
2022-11-01T03:43:36.378Z,3.20
2022-11-01T03:46:03.301Z,3.90
2022-11-01T03:48:30.245Z,3.60
2022-11-01T03:50:57.096Z,3.43
2022-11-01T03:53:24.604Z,3.60
2022-11-01T03:55:51.480Z,3.60
2022-11-01T03:58:18.457Z,3.30
2022-11-01T04:00:46.946Z,3.47
2022-11-01T04:03:13.959Z,3.60
2022-11-01T04:05:42.210Z,3.93
2022-11-01T04:08:11.156Z,4.50
2022-11-01T04:10:38.388Z,3.90
2022-11-01T04:13:05.672Z,3.90
2022-11-01T04:15:51.113Z,3.80
2022-11-01T04:18:41.987Z,3.60
2022-11-01T04:21:17.936Z,3.73
2022-11-01T04:23:46.205Z,4.17
2022-11-01T04:26:18.839Z,3.93
2022-11-01T04:28:57.113Z,3.43
2022-11-01T04:31:33.368Z,3.53
2022-11-01T04:34:01.632Z,3.40
2022-11-01T04:36:28.496Z,3.90
2022-11-01T04:38:56.873Z,3.57
2022-11-01T04:41:25.414Z,4.00
2022-11-01T04:43:57.946Z,4.00
2022-11-01T04:46:24.902Z,3.80
2022-11-01T04:48:51.741Z,4.20
2022-11-01T04:51:18.600Z,3.90
2022-11-01T04:53:45.418Z,4.03
2022-11-01T04:56:13.924Z,3.90
2022-11-01T04:58:44.963Z,3.83
2022-11-01T05:01:14.685Z,3.60
2022-11-01T05:03:42.033Z,4.13
2022-11-01T05:06:08.885Z,4.63
2022-11-01T05:08:35.802Z,4.40
2022-11-01T05:11:02.665Z,4.07
2022-11-01T05:13:30.045Z,4.23
2022-11-01T05:16:18.295Z,3.97
2022-11-01T05:18:43.879Z,4.80
2022-11-01T05:21:11.436Z,4.27
2022-11-01T05:23:38.308Z,4.37
2022-11-01T05:26:05.358Z,4.80
2022-11-01T05:28:32.209Z,4.30
2022-11-01T05:30:59.074Z,4.60
2022-11-01T05:33:25.952Z,4.90
2022-11-01T05:35:52.819Z,4.73
2022-11-01T05:38:20.778Z,4.77
2022-11-01T05:40:47.672Z,5.10
2022-11-01T05:43:15.105Z,5.37
2022-11-01T05:45:42.231Z,6.30
2022-11-01T05:48:09.381Z,6.30
2022-11-01T05:50:36.227Z,4.33
2022-11-01T05:53:10.200Z,4.10
2022-11-01T05:55:37.320Z,4.10
2022-11-01T05:58:04.157Z,4.43
2022-11-01T06:00:32.335Z,4.00
2022-11-01T06:02:59.435Z,3.70
2022-11-01T06:05:27.475Z,3.67
2022-11-01T06:07:54.639Z,4.00
2022-11-01T06:10:21.516Z,3.17
2022-11-01T06:12:48.414Z,3.00
2022-11-01T06:15:15.370Z,2.87
2022-11-01T06:17:42.157Z,2.80
2022-11-01T06:20:09.385Z,2.90
2022-11-01T06:22:36.686Z,3.13
2022-11-01T06:25:04.787Z,2.93
2022-11-01T06:27:32.959Z,3.03
2022-11-01T06:29:59.729Z,3.10
2022-11-01T06:32:26.517Z,3.20
2022-11-01T06:34:53.432Z,2.80
2022-11-01T06:37:20.192Z,3.23
2022-11-01T06:39:47.008Z,2.67
2022-11-01T06:42:13.861Z,2.60
2022-11-01T06:44:40.864Z,2.57
2022-11-01T06:47:07.735Z,2.80
2022-11-01T06:49:34.778Z,2.67
2022-11-01T06:52:01.730Z,2.77
2022-11-01T06:54:28.562Z,2.60
2022-11-01T06:56:55.377Z,2.70
2022-11-01T06:59:22.251Z,2.13
2022-11-01T07:01:49.353Z,2.30
2022-11-01T07:04:16.286Z,2.70
2022-11-01T07:06:43.236Z,2.10
2022-11-01T07:09:10.428Z,2.10
2022-11-01T07:11:37.556Z,2.27
2022-11-01T07:14:04.381Z,2.40
2022-11-01T07:16:31.959Z,2.33
2022-11-01T07:18:58.989Z,2.37
2022-11-01T07:21:26.046Z,2.37
2022-11-01T07:23:54.150Z,1.90
2022-11-01T07:26:21.402Z,2.30
2022-11-01T07:28:48.237Z,2.03
2022-11-01T07:31:15.072Z,2.17
2022-11-01T07:33:42.110Z,2.17
2022-11-01T07:36:09.051Z,2.20
2022-11-01T07:38:35.969Z,2.00
2022-11-01T07:41:04.789Z,2.30
2022-11-01T07:43:31.798Z,2.30
2022-11-01T07:46:08.950Z,2.17
2022-11-01T07:48:36.939Z,2.00
2022-11-01T07:51:06.116Z,2.20
2022-11-01T07:53:33.631Z,1.90
2022-11-01T07:56:01.731Z,2.30
2022-11-01T07:58:29.193Z,2.00
2022-11-01T08:00:56.169Z,2.10
2022-11-01T08:03:23.929Z,1.80
2022-11-01T08:05:50.787Z,1.97
2022-11-01T08:08:18.091Z,1.87
2022-11-01T08:10:45.680Z,1.90
2022-11-01T08:13:18.897Z,1.90
2022-11-01T08:15:46.602Z,2.10
2022-11-01T08:18:14.073Z,1.60
2022-11-01T08:20:43.916Z,1.70
2022-11-01T08:23:11.680Z,1.97
2022-11-01T08:25:38.891Z,1.53
2022-11-01T08:28:08.573Z,1.90
2022-11-01T08:30:37.259Z,1.90
2022-11-01T08:33:05.125Z,2.00
2022-11-01T08:35:33.775Z,2.20
2022-11-01T08:38:01.331Z,2.03
2022-11-01T08:40:28.588Z,1.70
2022-11-01T08:42:55.979Z,1.90
2022-11-01T08:45:23.277Z,1.77
2022-11-01T08:47:50.101Z,1.90
2022-11-01T08:50:17.779Z,1.70
2022-11-01T08:52:44.609Z,1.73
2022-11-01T08:55:11.841Z,2.10
2022-11-01T08:57:38.743Z,2.13
2022-11-01T09:00:13.781Z,1.93
2022-11-01T09:02:40.606Z,1.60
2022-11-01T09:05:08.658Z,1.60
2022-11-01T09:07:36.519Z,1.77
2022-11-01T09:10:04.266Z,1.50
2022-11-01T09:12:31.229Z,1.57
2022-11-01T09:14:58.239Z,1.07
2022-11-01T09:17:25.065Z,1.30
2022-11-01T09:19:51.897Z,1.20
2022-11-01T09:22:18.718Z,1.00
2022-11-01T09:24:45.627Z,1.10
2022-11-01T09:27:12.582Z,0.80
2022-11-01T09:29:39.598Z,0.70
2022-11-01T09:32:09.218Z,0.90
2022-11-01T09:34:36.040Z,0.80
2022-11-01T09:37:03.014Z,0.80
2022-11-01T09:39:29.818Z,0.80
2022-11-01T09:42:07.869Z,0.80
2022-11-01T09:44:42.422Z,0.90
2022-11-01T09:47:22.778Z,0.90
2022-11-01T09:52:33.718Z,0.87
2022-11-01T09:55:00.550Z,0.80
2022-11-01T09:57:43.964Z,0.80
2022-11-01T10:00:14.182Z,1.20
2022-11-01T10:02:52.922Z,0.80
2022-11-01T10:05:45.960Z,0.90
2022-11-01T10:08:12.694Z,0.87
2022-11-01T10:11:06.805Z,1.10
2022-11-01T10:13:48.060Z,0.80
2022-11-01T10:16:31.402Z,0.90
2022-11-01T10:19:17.569Z,1.00
2022-11-01T10:22:01.829Z,0.90
2022-11-01T10:24:59.000Z,0.80
2022-11-01T10:27:37.532Z,0.90
2022-11-01T10:30:13.250Z,0.80
2022-11-01T10:32:46.867Z,0.80
2022-11-01T10:35:19.702Z,0.80
2022-11-01T10:38:54.206Z,0.80
2022-11-01T10:41:25.951Z,0.90
2022-11-01T10:43:58.771Z,1.10
2022-11-01T10:46:30.921Z,0.90
2022-11-01T10:49:03.199Z,0.90
2022-11-01T10:51:33.466Z,1.00
2022-11-01T10:54:04.792Z,0.80
2022-11-01T10:56:35.870Z,0.77
2022-11-01T10:59:08.167Z,0.80
2022-11-01T11:01:43.361Z,0.80
2022-11-01T11:04:16.071Z,0.90
2022-11-01T11:06:43.564Z,1.33
2022-11-01T11:09:28.889Z,1.90
2022-11-01T11:12:01.746Z,2.43
2022-11-01T11:14:31.712Z,3.00
2022-11-01T11:16:59.835Z,2.40
2022-11-01T11:19:29.340Z,1.50
2022-11-01T11:21:57.280Z,1.43
2022-11-01T11:24:27.086Z,1.10
2022-11-01T11:26:57.640Z,0.80
2022-11-01T11:29:51.794Z,0.70
2022-11-01T11:32:37.961Z,1.03
2022-11-01T11:35:17.351Z,0.80
2022-11-01T11:37:57.662Z,0.70
2022-11-01T11:40:26.862Z,0.80
2022-11-01T11:42:56.025Z,0.90
2022-11-01T11:45:31.168Z,0.83
2022-11-01T11:48:15.683Z,0.90
2022-11-01T11:50:43.255Z,0.80
2022-11-01T11:53:20.469Z,0.93
2022-11-01T11:55:53.371Z,0.90
2022-11-01T11:58:34.808Z,0.80
2022-11-01T12:01:07.803Z,1.10
2022-11-01T12:03:58.535Z,1.10
2022-11-01T12:06:27.850Z,1.00
2022-11-01T12:08:57.053Z,0.80
2022-11-01T12:11:26.125Z,0.90
2022-11-01T12:14:17.933Z,0.90
2022-11-01T12:16:44.724Z,0.90
2022-11-01T12:19:25.174Z,0.83
2022-11-01T12:21:53.309Z,0.90
2022-11-01T12:24:30.677Z,0.90
2022-11-01T12:27:02.819Z,0.90
2022-11-01T12:29:44.284Z,1.00
2022-11-01T12:32:28.472Z,1.03
2022-11-01T12:35:01.140Z,1.10
2022-11-01T12:38:03.403Z,1.10
2022-11-01T12:40:42.672Z,1.10
2022-11-01T12:43:18.698Z,1.10
2022-11-01T12:46:01.436Z,0.90
2022-11-01T12:48:39.919Z,1.00
2022-11-01T12:51:24.077Z,1.20
2022-11-01T12:54:00.071Z,0.93
2022-11-01T12:56:27.366Z,0.90
2022-11-01T12:58:56.292Z,1.30
2022-11-01T13:01:43.183Z,1.20
2022-11-01T13:04:22.185Z,1.00
2022-11-01T13:07:19.877Z,1.10
2022-11-01T13:09:56.530Z,0.90
2022-11-01T13:12:43.875Z,1.20
2022-11-01T13:15:25.768Z,1.20
2022-11-01T13:18:16.572Z,0.90
2022-11-01T13:20:55.252Z,1.20
2022-11-01T13:23:50.540Z,1.00
2022-11-01T13:26:38.522Z,1.20
2022-11-01T13:29:33.302Z,1.17
2022-11-01T13:32:24.389Z,1.60
2022-11-01T13:35:05.458Z,1.23
2022-11-01T13:37:43.906Z,1.50
2022-11-01T13:40:16.592Z,1.30
2022-11-01T13:43:03.012Z,1.30
2022-11-01T13:45:48.144Z,2.20
2022-11-01T13:48:42.716Z,2.80
2022-11-01T13:51:21.584Z,2.27
2022-11-01T13:54:09.505Z,1.90
2022-11-01T13:57:11.961Z,1.70
2022-11-01T13:59:44.733Z,1.80
2022-11-01T14:02:42.123Z,1.80
2022-11-01T14:05:11.100Z,1.83
2022-11-01T14:07:44.934Z,1.50
2022-11-01T14:10:31.671Z,1.40
2022-11-01T14:12:59.592Z,1.50
2022-11-01T14:15:29.230Z,1.60
2022-11-01T14:18:12.023Z,1.93
2022-11-01T14:20:40.234Z,3.00
2022-11-01T14:23:28.872Z,3.10
2022-11-01T14:26:20.568Z,2.33
2022-11-01T14:28:59.015Z,2.00
2022-11-01T14:31:28.535Z,1.53
2022-11-01T14:33:59.986Z,1.77
2022-11-01T14:36:30.971Z,1.63
2022-11-01T14:39:07.022Z,1.70
2022-11-01T14:41:39.227Z,1.87
2022-11-01T14:44:34.129Z,2.30
2022-11-01T14:47:08.454Z,2.20
2022-11-01T14:49:44.290Z,1.70
2022-11-01T14:52:35.837Z,1.63
2022-11-01T14:55:23.541Z,1.80
2022-11-01T14:57:50.475Z,1.63
2022-11-01T15:00:25.322Z,1.80
2022-11-01T15:02:52.604Z,1.60
2022-11-01T15:05:19.561Z,2.00
2022-11-01T15:07:51.668Z,2.43
2022-11-01T15:10:19.193Z,2.10
2022-11-01T15:12:54.270Z,2.30
2022-11-01T15:15:27.873Z,2.20
2022-11-01T15:17:59.225Z,1.80
2022-11-01T15:20:29.312Z,1.80
2022-11-01T15:22:57.737Z,1.63
2022-11-01T15:25:26.678Z,1.87
2022-11-01T15:27:55.607Z,1.80
2022-11-01T15:30:26.369Z,1.50
2022-11-01T15:33:13.134Z,1.60
2022-11-01T15:35:39.972Z,1.60
2022-11-01T15:38:20.940Z,1.60
2022-11-01T15:40:50.383Z,1.60
2022-11-01T15:43:20.069Z,1.60
2022-11-01T15:45:52.997Z,1.97
2022-11-01T15:48:22.628Z,1.53
2022-11-01T15:50:53.379Z,1.50
2022-11-01T15:53:24.786Z,1.60
2022-11-01T15:56:06.353Z,1.73
2022-11-01T15:58:44.189Z,1.60
2022-11-01T16:01:19.316Z,1.60
2022-11-01T16:04:04.931Z,1.60
2022-11-01T16:06:41.076Z,1.50
2022-11-01T16:09:26.256Z,1.80
2022-11-01T16:11:57.525Z,1.90
2022-11-01T16:14:26.563Z,1.50
2022-11-01T16:16:57.221Z,1.90
2022-11-01T16:19:42.437Z,1.43
2022-11-01T16:22:28.024Z,1.77
2022-11-01T16:25:10.167Z,1.77
2022-11-01T16:27:55.497Z,1.70
2022-11-01T16:30:33.477Z,2.10
2022-11-01T16:33:23.449Z,1.90
2022-11-01T16:36:01.859Z,2.00
2022-11-01T16:38:35.445Z,2.20
2022-11-01T16:41:15.227Z,1.80
2022-11-01T16:43:42.941Z,1.57
2022-11-01T16:46:09.799Z,1.80
2022-11-01T16:48:51.644Z,1.60
2022-11-01T16:51:19.010Z,1.70
2022-11-01T16:53:45.894Z,1.63
2022-11-01T16:59:26.604Z,1.70
2022-11-01T17:01:55.963Z,2.03
2022-11-01T17:04:23.158Z,1.73
2022-11-01T17:06:50.826Z,2.00
2022-11-01T17:09:20.302Z,1.90
2022-11-01T17:11:51.553Z,1.73
2022-11-01T17:14:20.461Z,2.20
2022-11-01T17:16:48.575Z,1.97
2022-11-01T17:19:31.054Z,2.07
2022-11-01T17:22:12.620Z,2.00
2022-11-01T17:24:40.245Z,2.00
2022-11-01T17:27:07.667Z,2.47
2022-11-01T17:29:34.523Z,2.17
2022-11-01T17:32:02.856Z,2.07
2022-11-01T17:34:29.903Z,2.20
2022-11-01T17:36:59.955Z,2.30
2022-11-01T17:39:28.760Z,2.53
2022-11-01T17:41:56.157Z,2.13
2022-11-01T17:44:23.216Z,2.10
2022-11-01T17:46:52.109Z,2.03
2022-11-01T17:49:21.627Z,1.90
2022-11-01T17:51:54.169Z,2.30
2022-11-01T17:54:22.481Z,2.13
2022-11-01T17:56:51.217Z,1.97
2022-11-01T17:59:18.427Z,2.30
2022-11-01T18:01:45.411Z,2.00
2022-11-01T18:04:12.344Z,2.37
2022-11-01T18:06:40.697Z,2.50
2022-11-01T18:09:26.119Z,2.10
2022-11-01T18:12:02.710Z,2.30
2022-11-01T18:17:29.860Z,2.37
2022-11-01T18:20:11.638Z,2.30
2022-11-01T18:22:44.860Z,2.07
2022-11-01T18:25:25.699Z,1.97
2022-11-01T18:27:55.263Z,2.43
2022-11-01T18:30:22.243Z,2.67
2022-11-01T18:32:54.977Z,3.20
2022-11-01T18:35:41.907Z,3.00
2022-11-01T18:38:17.923Z,2.50
2022-11-01T18:41:12.973Z,2.20
2022-11-01T18:43:40.256Z,2.33
2022-11-01T18:46:25.823Z,2.50
2022-11-01T18:49:01.939Z,2.20
2022-11-01T18:51:31.404Z,2.30
2022-11-01T18:54:10.953Z,2.50
2022-11-01T18:56:48.161Z,2.20
2022-11-01T18:59:19.514Z,2.00
2022-11-01T19:01:51.482Z,2.10
2022-11-01T19:04:27.345Z,2.43
2022-11-01T19:07:09.711Z,2.50
2022-11-01T19:09:38.181Z,2.10
2022-11-01T19:12:27.051Z,2.60
2022-11-01T19:15:20.141Z,2.33
2022-11-01T19:17:58.281Z,2.10
2022-11-01T19:20:39.799Z,2.60
2022-11-01T19:23:30.853Z,2.27
2022-11-01T19:25:57.694Z,2.40
2022-11-01T19:28:27.599Z,2.73
2022-11-01T19:30:57.392Z,2.27
2022-11-01T19:33:34.218Z,2.20
2022-11-01T19:36:05.924Z,2.10
2022-11-01T19:38:34.029Z,2.33
2022-11-01T19:41:01.017Z,2.20
2022-11-01T19:43:28.303Z,2.10
2022-11-01T19:45:57.075Z,2.27
2022-11-01T19:48:30.109Z,2.23
2022-11-01T19:50:56.978Z,2.37
2022-11-01T19:53:33.917Z,2.20
2022-11-01T19:56:01.567Z,2.23
2022-11-01T19:58:35.844Z,2.93
2022-11-01T20:01:09.195Z,3.20
2022-11-01T20:04:29.558Z,2.97
2022-11-01T20:07:10.794Z,2.40
2022-11-01T20:09:40.905Z,2.70
2022-11-01T20:12:08.177Z,2.83
2022-11-01T20:14:35.553Z,2.70
2022-11-01T20:17:03.079Z,2.30
2022-11-01T20:19:31.342Z,2.40
2022-11-01T20:21:58.965Z,2.47
2022-11-01T20:24:27.440Z,2.10
2022-11-01T20:26:55.150Z,2.30
2022-11-01T20:29:22.545Z,2.30
2022-11-01T20:31:49.934Z,2.20
2022-11-01T20:34:16.842Z,2.17
2022-11-01T20:36:46.769Z,2.40
2022-11-01T20:39:22.670Z,2.03
2022-11-01T20:41:51.801Z,2.00
2022-11-01T20:44:18.686Z,2.30
2022-11-01T20:46:47.241Z,2.30
2022-11-01T20:49:14.027Z,1.93
2022-11-01T20:51:41.019Z,2.23
2022-11-01T20:54:07.902Z,2.20
2022-11-01T20:56:34.754Z,2.10
2022-11-01T21:01:33.541Z,2.20
2022-11-01T21:04:00.533Z,2.10
2022-11-01T21:06:31.455Z,2.33
2022-11-01T21:08:58.735Z,2.10
2022-11-01T21:11:43.893Z,2.20
2022-11-01T21:14:18.664Z,2.13
2022-11-01T21:16:48.075Z,2.00
2022-11-01T21:19:23.173Z,2.10
2022-11-01T21:21:57.347Z,2.27
2022-11-01T21:24:30.354Z,2.30
2022-11-01T21:27:13.760Z,1.87
2022-11-01T21:29:45.504Z,1.90
2022-11-01T21:32:35.038Z,1.90
2022-11-01T21:35:20.529Z,1.73
2022-11-01T21:37:54.244Z,1.90
2022-11-01T21:40:29.345Z,1.90
2022-11-01T21:42:57.450Z,1.70
2022-11-01T21:45:26.996Z,2.10
2022-11-01T21:47:54.061Z,2.20
2022-11-01T21:50:20.891Z,2.10
2022-11-01T21:52:47.685Z,2.20
2022-11-01T21:55:14.503Z,1.90
2022-11-01T21:57:41.332Z,1.73
2022-11-01T22:00:09.300Z,1.97
2022-11-01T22:02:36.257Z,1.70
2022-11-01T22:05:03.411Z,1.90
2022-11-01T22:07:30.179Z,2.03
2022-11-01T22:09:56.983Z,1.80
2022-11-01T22:12:23.806Z,1.80
2022-11-01T22:14:50.703Z,1.70
2022-11-01T22:17:17.547Z,1.90
2022-11-01T22:19:44.360Z,2.10
2022-11-01T22:22:11.114Z,2.00
2022-11-01T22:24:37.910Z,2.63
2022-11-01T22:27:05.093Z,2.00
2022-11-01T22:29:31.958Z,2.10
2022-11-01T22:31:58.733Z,2.00
2022-11-01T22:34:25.563Z,2.03
2022-11-01T22:36:52.386Z,1.90
2022-11-01T22:39:22.489Z,1.80
2022-11-01T22:41:49.373Z,2.07
2022-11-01T22:44:27.060Z,2.13
2022-11-01T22:47:02.549Z,2.10
2022-11-01T22:49:33.743Z,1.80
2022-11-01T22:52:12.570Z,2.10
2022-11-01T22:54:43.016Z,1.67
2022-11-01T22:57:09.797Z,1.80
2022-11-01T22:59:59.782Z,1.73
2022-11-01T23:02:38.366Z,2.03
2022-11-01T23:05:08.379Z,1.80
2022-11-01T23:07:41.289Z,1.80
2022-11-01T23:10:27.220Z,1.63
2022-11-01T23:13:21.471Z,1.77
2022-11-01T23:15:48.317Z,1.80
2022-11-01T23:18:23.511Z,1.70
2022-11-01T23:21:08.091Z,1.80
2022-11-01T23:23:43.503Z,1.60
2022-11-01T23:26:11.413Z,1.90
2022-11-01T23:28:43.426Z,1.90
2022-11-01T23:31:11.536Z,1.83
2022-11-01T23:33:44.642Z,1.90
2022-11-01T23:36:14.182Z,1.60
2022-11-01T23:38:49.684Z,2.03
2022-11-01T23:41:26.936Z,1.77
2022-11-01T23:43:56.776Z,2.27
2022-11-01T23:46:26.152Z,1.93
2022-11-01T23:49:06.948Z,1.73
2022-11-01T23:51:33.890Z,1.80
2022-11-01T23:54:01.105Z,2.10
2022-11-01T23:56:28.551Z,1.67
2022-11-01T23:59:04.481Z,1.80
